sensor_id;sensor_type;location;lat;lon;timestamp;temperature;humidity
75170;SHT31;63749;49.186;9.222;2023-04-29T00:00:16;11.55;99.99
75170;SHT31;63749;49.186;9.222;2023-04-29T00:02:42;11.43;99.79
75170;SHT31;63749;49.186;9.222;2023-04-29T00:05:08;11.38;99.99
75170;SHT31;63749;49.186;9.222;2023-04-29T00:07:33;11.35;99.99
75170;SHT31;63749;49.186;9.222;2023-04-29T00:09:59;11.28;99.99
75170;SHT31;63749;49.186;9.222;2023-04-29T00:12:25;11.21;99.93
75170;SHT31;63749;49.186;9.222;2023-04-29T00:14:50;11.09;99.89
75170;SHT31;63749;49.186;9.222;2023-04-29T00:17:15;11.01;99.84
75170;SHT31;63749;49.186;9.222;2023-04-29T00:19:41;10.92;99.87
75170;SHT31;63749;49.186;9.222;2023-04-29T00:22:07;10.91;99.99
75170;SHT31;63749;49.186;9.222;2023-04-29T00:24:33;10.87;99.99
75170;SHT31;63749;49.186;9.222;2023-04-29T00:26:58;10.85;99.99
75170;SHT31;63749;49.186;9.222;2023-04-29T00:29:24;10.84;99.99
75170;SHT31;63749;49.186;9.222;2023-04-29T00:31:49;10.90;99.99
75170;SHT31;63749;49.186;9.222;2023-04-29T00:34:15;10.92;99.99
75170;SHT31;63749;49.186;9.222;2023-04-29T00:36:40;10.88;99.99
75170;SHT31;63749;49.186;9.222;2023-04-29T00:39:06;10.87;99.99
75170;SHT31;63749;49.186;9.222;2023-04-29T00:41:32;10.84;99.99
75170;SHT31;63749;49.186;9.222;2023-04-29T00:43:57;10.78;99.99
75170;SHT31;63749;49.186;9.222;2023-04-29T00:46:23;10.72;99.99
75170;SHT31;63749;49.186;9.222;2023-04-29T00:48:48;10.64;99.99
75170;SHT31;63749;49.186;9.222;2023-04-29T00:51:15;10.67;99.99
75170;SHT31;63749;49.186;9.222;2023-04-29T00:53:42;10.65;99.99
75170;SHT31;63749;49.186;9.222;2023-04-29T00:56:07;10.65;99.99
75170;SHT31;63749;49.186;9.222;2023-04-29T00:58:34;10.59;99.99
75170;SHT31;63749;49.186;9.222;2023-04-29T01:01:00;10.64;99.99
75170;SHT31;63749;49.186;9.222;2023-04-29T01:03:29;10.68;99.99
75170;SHT31;63749;49.186;9.222;2023-04-29T01:09:09;10.71;99.99
75170;SHT31;63749;49.186;9.222;2023-04-29T01:12:02;10.72;99.99
75170;SHT31;63749;49.186;9.222;2023-04-29T01:14:31;10.70;99.99
75170;SHT31;63749;49.186;9.222;2023-04-29T01:17:05;10.64;99.99
75170;SHT31;63749;49.186;9.222;2023-04-29T01:22:00;10.53;99.99
75170;SHT31;63749;49.186;9.222;2023-04-29T01:24:26;10.54;99.99
75170;SHT31;63749;49.186;9.222;2023-04-29T01:26:55;10.49;99.99
75170;SHT31;63749;49.186;9.222;2023-04-29T01:29:39;10.46;99.99
75170;SHT31;63749;49.186;9.222;2023-04-29T01:32:12;10.44;99.99
75170;SHT31;63749;49.186;9.222;2023-04-29T01:34:48;10.36;99.99
75170;SHT31;63749;49.186;9.222;2023-04-29T01:37:30;10.40;99.99
75170;SHT31;63749;49.186;9.222;2023-04-29T01:40:20;10.36;99.99
75170;SHT31;63749;49.186;9.222;2023-04-29T01:43:04;10.40;99.99
75170;SHT31;63749;49.186;9.222;2023-04-29T01:45:33;10.49;99.99
75170;SHT31;63749;49.186;9.222;2023-04-29T01:48:03;10.56;99.99
75170;SHT31;63749;49.186;9.222;2023-04-29T01:50:28;10.54;99.99
75170;SHT31;63749;49.186;9.222;2023-04-29T01:52:54;10.51;99.99
75170;SHT31;63749;49.186;9.222;2023-04-29T01:55:19;10.43;99.99
75170;SHT31;63749;49.186;9.222;2023-04-29T01:57:45;10.44;99.99
75170;SHT31;63749;49.186;9.222;2023-04-29T02:00:11;10.44;99.99
75170;SHT31;63749;49.186;9.222;2023-04-29T02:02:36;10.46;99.99
75170;SHT31;63749;49.186;9.222;2023-04-29T02:05:02;10.50;99.99
75170;SHT31;63749;49.186;9.222;2023-04-29T02:07:27;10.46;99.99
75170;SHT31;63749;49.186;9.222;2023-04-29T02:09:52;10.44;99.99
75170;SHT31;63749;49.186;9.222;2023-04-29T02:12:18;10.53;99.99
75170;SHT31;63749;49.186;9.222;2023-04-29T02:14:43;10.61;99.99
75170;SHT31;63749;49.186;9.222;2023-04-29T02:17:09;10.72;99.99
75170;SHT31;63749;49.186;9.222;2023-04-29T02:19:34;10.75;99.99
75170;SHT31;63749;49.186;9.222;2023-04-29T02:21:59;10.82;99.99
75170;SHT31;63749;49.186;9.222;2023-04-29T02:24:25;11.00;99.99
75170;SHT31;63749;49.186;9.222;2023-04-29T02:26:51;11.07;99.99
75170;SHT31;63749;49.186;9.222;2023-04-29T02:29:16;11.21;99.99
75170;SHT31;63749;49.186;9.222;2023-04-29T02:31:41;11.36;99.99
75170;SHT31;63749;49.186;9.222;2023-04-29T02:34:06;11.50;99.99
75170;SHT31;63749;49.186;9.222;2023-04-29T02:36:32;11.69;99.99
75170;SHT31;63749;49.186;9.222;2023-04-29T02:38:57;11.81;99.99
75170;SHT31;63749;49.186;9.222;2023-04-29T02:41:24;11.90;99.99
75170;SHT31;63749;49.186;9.222;2023-04-29T02:43:49;12.01;99.99
75170;SHT31;63749;49.186;9.222;2023-04-29T02:46:15;12.04;99.99
75170;SHT31;63749;49.186;9.222;2023-04-29T02:48:40;12.04;99.99
75170;SHT31;63749;49.186;9.222;2023-04-29T02:51:06;12.04;99.99
75170;SHT31;63749;49.186;9.222;2023-04-29T02:53:31;12.07;99.99
75170;SHT31;63749;49.186;9.222;2023-04-29T02:55:57;12.08;99.99
75170;SHT31;63749;49.186;9.222;2023-04-29T02:58:22;12.13;99.99
75170;SHT31;63749;49.186;9.222;2023-04-29T03:00:48;12.14;99.99
75170;SHT31;63749;49.186;9.222;2023-04-29T03:03:13;12.13;99.99
75170;SHT31;63749;49.186;9.222;2023-04-29T03:05:39;12.14;99.99
75170;SHT31;63749;49.186;9.222;2023-04-29T03:08:05;12.20;99.99
75170;SHT31;63749;49.186;9.222;2023-04-29T03:10:30;12.20;99.99
75170;SHT31;63749;49.186;9.222;2023-04-29T03:12:55;12.22;99.99
75170;SHT31;63749;49.186;9.222;2023-04-29T03:15:21;12.21;99.99
75170;SHT31;63749;49.186;9.222;2023-04-29T03:17:46;12.24;99.99
75170;SHT31;63749;49.186;9.222;2023-04-29T03:20:12;12.32;99.99
75170;SHT31;63749;49.186;9.222;2023-04-29T03:22:37;12.28;99.99
75170;SHT31;63749;49.186;9.222;2023-04-29T03:25:03;12.27;99.99
75170;SHT31;63749;49.186;9.222;2023-04-29T03:27:29;12.29;99.99
75170;SHT31;63749;49.186;9.222;2023-04-29T03:29:54;12.31;99.99
75170;SHT31;63749;49.186;9.222;2023-04-29T03:32:20;12.37;99.99
75170;SHT31;63749;49.186;9.222;2023-04-29T03:34:45;12.39;99.99
75170;SHT31;63749;49.186;9.222;2023-04-29T03:37:11;12.45;99.99
75170;SHT31;63749;49.186;9.222;2023-04-29T03:39:36;12.46;99.99
75170;SHT31;63749;49.186;9.222;2023-04-29T03:42:02;12.46;99.99
75170;SHT31;63749;49.186;9.222;2023-04-29T03:44:28;12.42;99.99
75170;SHT31;63749;49.186;9.222;2023-04-29T03:46:54;12.37;99.99
75170;SHT31;63749;49.186;9.222;2023-04-29T03:49:19;12.31;99.99
75170;SHT31;63749;49.186;9.222;2023-04-29T03:51:45;12.24;99.91
75170;SHT31;63749;49.186;9.222;2023-04-29T03:54:11;12.14;99.92
75170;SHT31;63749;49.186;9.222;2023-04-29T03:56:37;12.07;99.95
75170;SHT31;63749;49.186;9.222;2023-04-29T03:59:02;12.01;99.99
75170;SHT31;63749;49.186;9.222;2023-04-29T04:01:28;11.89;99.80
75170;SHT31;63749;49.186;9.222;2023-04-29T04:03:53;11.79;99.64
75170;SHT31;63749;49.186;9.222;2023-04-29T04:06:18;11.81;99.87
75170;SHT31;63749;49.186;9.222;2023-04-29T04:08:44;11.77;99.79
75170;SHT31;63749;49.186;9.222;2023-04-29T04:11:09;11.71;99.94
75170;SHT31;63749;49.186;9.222;2023-04-29T04:13:35;11.60;99.60
75170;SHT31;63749;49.186;9.222;2023-04-29T04:16:01;11.60;99.75
75170;SHT31;63749;49.186;9.222;2023-04-29T04:18:26;11.58;99.80
75170;SHT31;63749;49.186;9.222;2023-04-29T04:20:51;11.59;99.83
75170;SHT31;63749;49.186;9.222;2023-04-29T04:23:17;11.59;99.74
75170;SHT31;63749;49.186;9.222;2023-04-29T04:25:48;11.65;99.53
75170;SHT31;63749;49.186;9.222;2023-04-29T04:28:14;11.70;99.11
75170;SHT31;63749;49.186;9.222;2023-04-29T04:30:40;11.70;98.73
75170;SHT31;63749;49.186;9.222;2023-04-29T04:33:07;11.66;98.51
75170;SHT31;63749;49.186;9.222;2023-04-29T04:35:32;11.63;98.49
75170;SHT31;63749;49.186;9.222;2023-04-29T04:37:57;11.60;98.33
75170;SHT31;63749;49.186;9.222;2023-04-29T04:40:23;11.59;98.39
75170;SHT31;63749;49.186;9.222;2023-04-29T04:42:48;11.63;98.18
75170;SHT31;63749;49.186;9.222;2023-04-29T04:45:14;11.66;98.28
75170;SHT31;63749;49.186;9.222;2023-04-29T04:47:40;11.69;98.26
75170;SHT31;63749;49.186;9.222;2023-04-29T04:50:06;11.69;98.03
75170;SHT31;63749;49.186;9.222;2023-04-29T04:52:32;11.77;97.70
75170;SHT31;63749;49.186;9.222;2023-04-29T04:54:57;11.81;97.47
75170;SHT31;63749;49.186;9.222;2023-04-29T04:57:23;11.84;97.27
75170;SHT31;63749;49.186;9.222;2023-04-29T04:59:48;11.84;97.30
75170;SHT31;63749;49.186;9.222;2023-04-29T05:02:13;11.91;97.13
75170;SHT31;63749;49.186;9.222;2023-04-29T05:04:39;11.93;97.07
75170;SHT31;63749;49.186;9.222;2023-04-29T05:07:04;11.95;97.01
75170;SHT31;63749;49.186;9.222;2023-04-29T05:09:29;11.94;97.14
75170;SHT31;63749;49.186;9.222;2023-04-29T05:11:55;11.94;97.12
75170;SHT31;63749;49.186;9.222;2023-04-29T05:14:20;11.93;97.25
75170;SHT31;63749;49.186;9.222;2023-04-29T05:16:46;11.95;97.47
75170;SHT31;63749;49.186;9.222;2023-04-29T05:19:11;12.02;97.64
75170;SHT31;63749;49.186;9.222;2023-04-29T05:21:36;12.08;97.24
75170;SHT31;63749;49.186;9.222;2023-04-29T05:24:02;12.16;96.90
75170;SHT31;63749;49.186;9.222;2023-04-29T05:26:27;12.17;97.30
75170;SHT31;63749;49.186;9.222;2023-04-29T05:28:53;12.25;97.36
75170;SHT31;63749;49.186;9.222;2023-04-29T05:31:19;12.37;97.18
75170;SHT31;63749;49.186;9.222;2023-04-29T05:33:45;12.49;97.38
75170;SHT31;63749;49.186;9.222;2023-04-29T05:36:10;12.59;97.30
75170;SHT31;63749;49.186;9.222;2023-04-29T05:38:35;12.69;97.34
75170;SHT31;63749;49.186;9.222;2023-04-29T05:41:01;12.80;97.41
75170;SHT31;63749;49.186;9.222;2023-04-29T05:43:27;12.75;96.80
75170;SHT31;63749;49.186;9.222;2023-04-29T05:45:53;12.80;97.14
75170;SHT31;63749;49.186;9.222;2023-04-29T05:48:18;12.78;97.13
75170;SHT31;63749;49.186;9.222;2023-04-29T05:50:43;12.78;97.00
75170;SHT31;63749;49.186;9.222;2023-04-29T05:53:09;12.78;96.89
75170;SHT31;63749;49.186;9.222;2023-04-29T05:55:35;12.99;96.36
75170;SHT31;63749;49.186;9.222;2023-04-29T05:58:00;13.07;95.89
75170;SHT31;63749;49.186;9.222;2023-04-29T06:00:26;13.02;95.97
75170;SHT31;63749;49.186;9.222;2023-04-29T06:02:51;12.97;95.89
75170;SHT31;63749;49.186;9.222;2023-04-29T06:05:16;13.07;95.72
75170;SHT31;63749;49.186;9.222;2023-04-29T06:07:42;12.99;95.69
75170;SHT31;63749;49.186;9.222;2023-04-29T06:10:08;12.93;95.71
75170;SHT31;63749;49.186;9.222;2023-04-29T06:12:34;13.02;94.44
75170;SHT31;63749;49.186;9.222;2023-04-29T06:15:00;12.92;94.77
75170;SHT31;63749;49.186;9.222;2023-04-29T06:17:25;12.95;94.50
75170;SHT31;63749;49.186;9.222;2023-04-29T06:19:53;12.90;94.67
75170;SHT31;63749;49.186;9.222;2023-04-29T06:22:19;12.90;93.85
75170;SHT31;63749;49.186;9.222;2023-04-29T06:24:44;12.92;94.44
75170;SHT31;63749;49.186;9.222;2023-04-29T06:27:11;12.95;93.76
75170;SHT31;63749;49.186;9.222;2023-04-29T06:29:36;12.86;94.29
75170;SHT31;63749;49.186;9.222;2023-04-29T06:32:02;12.82;93.89
75170;SHT31;63749;49.186;9.222;2023-04-29T06:34:27;12.86;94.02
75170;SHT31;63749;49.186;9.222;2023-04-29T06:36:52;13.00;93.08
75170;SHT31;63749;49.186;9.222;2023-04-29T06:39:18;13.20;93.41
75170;SHT31;63749;49.186;9.222;2023-04-29T06:41:43;13.27;93.24
75170;SHT31;63749;49.186;9.222;2023-04-29T06:44:08;13.38;92.27
75170;SHT31;63749;49.186;9.222;2023-04-29T06:46:34;13.53;92.30
75170;SHT31;63749;49.186;9.222;2023-04-29T06:49:00;13.75;91.64
75170;SHT31;63749;49.186;9.222;2023-04-29T06:51:25;13.99;89.18
75170;SHT31;63749;49.186;9.222;2023-04-29T06:53:52;14.16;88.88
75170;SHT31;63749;49.186;9.222;2023-04-29T06:56:17;14.15;89.12
75170;SHT31;63749;49.186;9.222;2023-04-29T06:58:43;14.20;88.13
75170;SHT31;63749;49.186;9.222;2023-04-29T07:01:08;14.20;86.99
75170;SHT31;63749;49.186;9.222;2023-04-29T07:03:34;14.17;87.24
75170;SHT31;63749;49.186;9.222;2023-04-29T07:06:00;14.13;87.59
75170;SHT31;63749;49.186;9.222;2023-04-29T07:08:25;14.12;87.39
75170;SHT31;63749;49.186;9.222;2023-04-29T07:10:55;14.15;87.68
75170;SHT31;63749;49.186;9.222;2023-04-29T07:13:20;14.26;87.17
75170;SHT31;63749;49.186;9.222;2023-04-29T07:15:46;14.29;85.76
75170;SHT31;63749;49.186;9.222;2023-04-29T07:18:11;14.34;86.19
75170;SHT31;63749;49.186;9.222;2023-04-29T07:20:37;14.41;87.07
75170;SHT31;63749;49.186;9.222;2023-04-29T07:23:02;14.41;85.41
75170;SHT31;63749;49.186;9.222;2023-04-29T07:25:27;14.51;86.42
75170;SHT31;63749;49.186;9.222;2023-04-29T07:27:53;14.63;85.16
75170;SHT31;63749;49.186;9.222;2023-04-29T07:30:19;14.73;85.27
75170;SHT31;63749;49.186;9.222;2023-04-29T07:32:44;15.01;85.08
75170;SHT31;63749;49.186;9.222;2023-04-29T07:35:09;14.98;83.90
75170;SHT31;63749;49.186;9.222;2023-04-29T07:37:35;14.85;83.33
75170;SHT31;63749;49.186;9.222;2023-04-29T07:40:00;14.80;82.54
75170;SHT31;63749;49.186;9.222;2023-04-29T07:42:25;14.96;82.44
75170;SHT31;63749;49.186;9.222;2023-04-29T07:44:51;15.18;83.04
75170;SHT31;63749;49.186;9.222;2023-04-29T07:47:16;15.21;82.00
75170;SHT31;63749;49.186;9.222;2023-04-29T07:49:41;15.31;81.50
75170;SHT31;63749;49.186;9.222;2023-04-29T07:52:07;15.31;80.81
75170;SHT31;63749;49.186;9.222;2023-04-29T07:54:34;15.35;81.22
75170;SHT31;63749;49.186;9.222;2023-04-29T07:57:00;15.53;79.99
75170;SHT31;63749;49.186;9.222;2023-04-29T07:59:27;15.76;77.88
75170;SHT31;63749;49.186;9.222;2023-04-29T08:01:53;15.94;76.57
75170;SHT31;63749;49.186;9.222;2023-04-29T08:04:18;16.00;78.12
75170;SHT31;63749;49.186;9.222;2023-04-29T08:06:44;16.10;75.57
75170;SHT31;63749;49.186;9.222;2023-04-29T08:09:09;16.07;75.79
75170;SHT31;63749;49.186;9.222;2023-04-29T08:11:35;16.24;75.54
75170;SHT31;63749;49.186;9.222;2023-04-29T08:14:00;16.08;74.96
75170;SHT31;63749;49.186;9.222;2023-04-29T08:16:26;16.11;75.82
75170;SHT31;63749;49.186;9.222;2023-04-29T08:18:52;15.89;75.16
75170;SHT31;63749;49.186;9.222;2023-04-29T08:21:18;15.82;75.49
75170;SHT31;63749;49.186;9.222;2023-04-29T08:23:43;15.82;75.74
75170;SHT31;63749;49.186;9.222;2023-04-29T08:26:10;15.87;75.96
75170;SHT31;63749;49.186;9.222;2023-04-29T08:28:35;15.90;75.68
75170;SHT31;63749;49.186;9.222;2023-04-29T08:31:00;15.96;76.25
75170;SHT31;63749;49.186;9.222;2023-04-29T08:33:26;16.08;75.81
75170;SHT31;63749;49.186;9.222;2023-04-29T08:36:00;16.17;74.99
75170;SHT31;63749;49.186;9.222;2023-04-29T08:38:28;16.07;75.71
75170;SHT31;63749;49.186;9.222;2023-04-29T08:40:54;15.91;76.19
75170;SHT31;63749;49.186;9.222;2023-04-29T08:43:21;15.90;75.94
75170;SHT31;63749;49.186;9.222;2023-04-29T08:45:49;15.79;76.01
75170;SHT31;63749;49.186;9.222;2023-04-29T08:48:16;15.79;75.95
75170;SHT31;63749;49.186;9.222;2023-04-29T08:50:42;15.94;76.06
75170;SHT31;63749;49.186;9.222;2023-04-29T08:53:09;16.07;76.81
75170;SHT31;63749;49.186;9.222;2023-04-29T08:55:42;16.28;75.76
75170;SHT31;63749;49.186;9.222;2023-04-29T08:58:08;16.65;74.34
75170;SHT31;63749;49.186;9.222;2023-04-29T09:00:35;16.92;74.75
75170;SHT31;63749;49.186;9.222;2023-04-29T09:03:10;17.04;73.55
75170;SHT31;63749;49.186;9.222;2023-04-29T09:05:37;17.04;73.05
75170;SHT31;63749;49.186;9.222;2023-04-29T09:08:06;17.06;72.74
75170;SHT31;63749;49.186;9.222;2023-04-29T09:10:32;17.07;73.31
75170;SHT31;63749;49.186;9.222;2023-04-29T09:12:59;17.04;72.83
75170;SHT31;63749;49.186;9.222;2023-04-29T09:15:25;17.10;73.63
75170;SHT31;63749;49.186;9.222;2023-04-29T09:17:50;17.09;73.45
75170;SHT31;63749;49.186;9.222;2023-04-29T09:22:48;17.23;71.38
75170;SHT31;63749;49.186;9.222;2023-04-29T09:25:14;17.41;70.85
75170;SHT31;63749;49.186;9.222;2023-04-29T09:27:40;17.68;69.51
75170;SHT31;63749;49.186;9.222;2023-04-29T09:30:06;17.79;69.09
75170;SHT31;63749;49.186;9.222;2023-04-29T09:32:32;17.81;68.64
75170;SHT31;63749;49.186;9.222;2023-04-29T09:34:57;17.68;68.31
75170;SHT31;63749;49.186;9.222;2023-04-29T09:37:24;17.71;67.71
75170;SHT31;63749;49.186;9.222;2023-04-29T09:39:50;17.83;67.22
75170;SHT31;63749;49.186;9.222;2023-04-29T09:42:15;17.74;68.09
75170;SHT31;63749;49.186;9.222;2023-04-29T09:44:41;17.89;67.85
75170;SHT31;63749;49.186;9.222;2023-04-29T09:47:08;17.86;68.15
75170;SHT31;63749;49.186;9.222;2023-04-29T09:49:37;17.78;67.34
75170;SHT31;63749;49.186;9.222;2023-04-29T09:52:14;17.54;67.78
75170;SHT31;63749;49.186;9.222;2023-04-29T09:54:44;17.54;67.72
75170;SHT31;63749;49.186;9.222;2023-04-29T09:57:11;17.48;67.30
75170;SHT31;63749;49.186;9.222;2023-04-29T09:59:38;17.51;67.05
75170;SHT31;63749;49.186;9.222;2023-04-29T10:02:17;17.40;66.44
75170;SHT31;63749;49.186;9.222;2023-04-29T10:05:01;17.47;67.40
75170;SHT31;63749;49.186;9.222;2023-04-29T10:07:26;17.30;68.44
75170;SHT31;63749;49.186;9.222;2023-04-29T10:09:53;17.32;66.94
75170;SHT31;63749;49.186;9.222;2023-04-29T10:12:19;17.21;66.63
75170;SHT31;63749;49.186;9.222;2023-04-29T10:15:02;17.20;65.36
75170;SHT31;63749;49.186;9.222;2023-04-29T10:20:26;17.11;66.28
75170;SHT31;63749;49.186;9.222;2023-04-29T10:22:52;17.28;65.66
75170;SHT31;63749;49.186;9.222;2023-04-29T10:25:23;17.42;65.90
75170;SHT31;63749;49.186;9.222;2023-04-29T10:27:50;17.58;65.33
75170;SHT31;63749;49.186;9.222;2023-04-29T10:30:19;17.64;65.17
75170;SHT31;63749;49.186;9.222;2023-04-29T10:32:47;17.61;65.05
75170;SHT31;63749;49.186;9.222;2023-04-29T10:35:14;17.58;65.71
75170;SHT31;63749;49.186;9.222;2023-04-29T10:37:41;17.54;66.20
75170;SHT31;63749;49.186;9.222;2023-04-29T10:40:43;17.50;64.94
75170;SHT31;63749;49.186;9.222;2023-04-29T10:43:10;17.50;66.71
75170;SHT31;63749;49.186;9.222;2023-04-29T10:45:36;17.40;65.18
75170;SHT31;63749;49.186;9.222;2023-04-29T10:53:11;17.28;64.73
75170;SHT31;63749;49.186;9.222;2023-04-29T10:55:37;17.30;65.74
75170;SHT31;63749;49.186;9.222;2023-04-29T10:58:04;17.61;64.29
75170;SHT31;63749;49.186;9.222;2023-04-29T11:00:31;17.58;63.64
75170;SHT31;63749;49.186;9.222;2023-04-29T11:03:00;17.52;64.52
75170;SHT31;63749;49.186;9.222;2023-04-29T11:05:33;17.52;63.94
75170;SHT31;63749;49.186;9.222;2023-04-29T11:08:13;17.57;64.07
75170;SHT31;63749;49.186;9.222;2023-04-29T11:10:46;17.67;63.96
75170;SHT31;63749;49.186;9.222;2023-04-29T11:16:25;17.72;63.98
75170;SHT31;63749;49.186;9.222;2023-04-29T11:21:30;17.89;63.32
75170;SHT31;63749;49.186;9.222;2023-04-29T11:23:56;18.02;63.39
75170;SHT31;63749;49.186;9.222;2023-04-29T11:26:23;18.10;63.14
75170;SHT31;63749;49.186;9.222;2023-04-29T11:28:50;18.40;62.47
75170;SHT31;63749;49.186;9.222;2023-04-29T11:31:16;18.30;62.31
75170;SHT31;63749;49.186;9.222;2023-04-29T11:33:41;18.39;61.51
75170;SHT31;63749;49.186;9.222;2023-04-29T11:36:08;18.68;60.83
75170;SHT31;63749;49.186;9.222;2023-04-29T11:38:38;18.91;61.41
75170;SHT31;63749;49.186;9.222;2023-04-29T11:41:04;18.85;59.51
75170;SHT31;63749;49.186;9.222;2023-04-29T11:43:29;19.02;58.88
75170;SHT31;63749;49.186;9.222;2023-04-29T11:45:54;18.95;59.28
75170;SHT31;63749;49.186;9.222;2023-04-29T11:48:25;18.64;59.65
75170;SHT31;63749;49.186;9.222;2023-04-29T11:50:52;18.74;59.89
75170;SHT31;63749;49.186;9.222;2023-04-29T11:53:19;18.80;60.26
75170;SHT31;63749;49.186;9.222;2023-04-29T11:55:45;18.99;59.91
75170;SHT31;63749;49.186;9.222;2023-04-29T11:58:15;18.77;60.36
75170;SHT31;63749;49.186;9.222;2023-04-29T12:00:42;19.11;59.17
75170;SHT31;63749;49.186;9.222;2023-04-29T12:03:16;19.09;58.95
75170;SHT31;63749;49.186;9.222;2023-04-29T12:05:49;19.09;59.21
75170;SHT31;63749;49.186;9.222;2023-04-29T12:08:24;19.40;58.66
75170;SHT31;63749;49.186;9.222;2023-04-29T12:10:55;19.60;57.68
75170;SHT31;63749;49.186;9.222;2023-04-29T12:13:22;19.83;57.40
75170;SHT31;63749;49.186;9.222;2023-04-29T12:15:49;20.00;57.27
75170;SHT31;63749;49.186;9.222;2023-04-29T12:18:17;20.21;57.50
75170;SHT31;63749;49.186;9.222;2023-04-29T12:20:43;20.11;55.39
75170;SHT31;63749;49.186;9.222;2023-04-29T12:23:19;19.69;57.10
75170;SHT31;63749;49.186;9.222;2023-04-29T12:28:18;18.81;59.21
75170;SHT31;63749;49.186;9.222;2023-04-29T12:30:44;18.56;60.32
75170;SHT31;63749;49.186;9.222;2023-04-29T12:33:18;18.13;60.82
75170;SHT31;63749;49.186;9.222;2023-04-29T12:35:43;17.74;62.45
75170;SHT31;63749;49.186;9.222;2023-04-29T12:38:09;17.62;62.57
75170;SHT31;63749;49.186;9.222;2023-04-29T12:40:35;17.31;63.59
75170;SHT31;63749;49.186;9.222;2023-04-29T12:43:07;17.10;63.49
75170;SHT31;63749;49.186;9.222;2023-04-29T12:45:33;17.03;62.48
75170;SHT31;63749;49.186;9.222;2023-04-29T12:48:00;17.02;62.65
75170;SHT31;63749;49.186;9.222;2023-04-29T12:50:33;16.89;62.40
75170;SHT31;63749;49.186;9.222;2023-04-29T12:52:59;17.02;63.04
75170;SHT31;63749;49.186;9.222;2023-04-29T12:55:25;17.07;63.28
75170;SHT31;63749;49.186;9.222;2023-04-29T12:57:51;17.17;62.13
75170;SHT31;63749;49.186;9.222;2023-04-29T13:00:17;17.23;62.34
75170;SHT31;63749;49.186;9.222;2023-04-29T13:02:44;17.34;62.64
75170;SHT31;63749;49.186;9.222;2023-04-29T13:05:10;17.55;62.92
75170;SHT31;63749;49.186;9.222;2023-04-29T13:07:36;17.62;62.01
75170;SHT31;63749;49.186;9.222;2023-04-29T13:10:02;17.86;61.99
75170;SHT31;63749;49.186;9.222;2023-04-29T13:12:30;17.79;61.35
75170;SHT31;63749;49.186;9.222;2023-04-29T13:14:55;17.67;62.04
75170;SHT31;63749;49.186;9.222;2023-04-29T13:17:21;17.47;61.78
75170;SHT31;63749;49.186;9.222;2023-04-29T13:19:46;17.34;62.57
75170;SHT31;63749;49.186;9.222;2023-04-29T13:22:12;17.26;62.20
75170;SHT31;63749;49.186;9.222;2023-04-29T13:24:37;17.11;62.65
75170;SHT31;63749;49.186;9.222;2023-04-29T13:27:03;16.96;62.66
75170;SHT31;63749;49.186;9.222;2023-04-29T13:29:28;16.82;64.37
75170;SHT31;63749;49.186;9.222;2023-04-29T13:31:53;16.71;64.75
75170;SHT31;63749;49.186;9.222;2023-04-29T13:34:19;16.61;64.96
75170;SHT31;63749;49.186;9.222;2023-04-29T13:36:44;16.61;64.24
75170;SHT31;63749;49.186;9.222;2023-04-29T13:39:10;16.51;64.53
75170;SHT31;63749;49.186;9.222;2023-04-29T13:41:35;16.49;64.66
75170;SHT31;63749;49.186;9.222;2023-04-29T13:44:01;16.44;65.28
75170;SHT31;63749;49.186;9.222;2023-04-29T13:46:26;16.45;64.78
75170;SHT31;63749;49.186;9.222;2023-04-29T13:48:52;16.47;64.81
75170;SHT31;63749;49.186;9.222;2023-04-29T13:51:18;16.48;64.22
75170;SHT31;63749;49.186;9.222;2023-04-29T13:53:43;16.42;63.43
75170;SHT31;63749;49.186;9.222;2023-04-29T13:56:08;16.36;63.75
75170;SHT31;63749;49.186;9.222;2023-04-29T13:58:34;16.25;65.24
75170;SHT31;63749;49.186;9.222;2023-04-29T14:01:00;16.32;65.31
75170;SHT31;63749;49.186;9.222;2023-04-29T14:03:25;16.29;65.51
75170;SHT31;63749;49.186;9.222;2023-04-29T14:05:51;16.35;65.70
75170;SHT31;63749;49.186;9.222;2023-04-29T14:08:16;16.38;65.83
75170;SHT31;63749;49.186;9.222;2023-04-29T14:10:42;16.35;65.04
75170;SHT31;63749;49.186;9.222;2023-04-29T14:13:07;16.49;64.80
75170;SHT31;63749;49.186;9.222;2023-04-29T14:15:32;16.47;64.06
75170;SHT31;63749;49.186;9.222;2023-04-29T14:17:58;16.48;64.08
75170;SHT31;63749;49.186;9.222;2023-04-29T14:20:23;16.36;64.64
75170;SHT31;63749;49.186;9.222;2023-04-29T14:22:48;16.25;64.37
75170;SHT31;63749;49.186;9.222;2023-04-29T14:25:14;16.17;65.60
75170;SHT31;63749;49.186;9.222;2023-04-29T14:27:39;16.10;64.97
75170;SHT31;63749;49.186;9.222;2023-04-29T14:30:05;16.07;64.86
75170;SHT31;63749;49.186;9.222;2023-04-29T14:32:31;16.10;64.37
75170;SHT31;63749;49.186;9.222;2023-04-29T14:34:56;16.05;64.26
75170;SHT31;63749;49.186;9.222;2023-04-29T14:37:22;16.11;64.94
75170;SHT31;63749;49.186;9.222;2023-04-29T14:39:48;16.15;64.48
75170;SHT31;63749;49.186;9.222;2023-04-29T14:42:13;16.14;64.07
75170;SHT31;63749;49.186;9.222;2023-04-29T14:44:39;16.17;64.40
75170;SHT31;63749;49.186;9.222;2023-04-29T14:47:04;16.11;64.17
75170;SHT31;63749;49.186;9.222;2023-04-29T14:49:30;16.20;63.72
75170;SHT31;63749;49.186;9.222;2023-04-29T14:51:55;16.20;63.20
75170;SHT31;63749;49.186;9.222;2023-04-29T14:54:20;16.25;62.87
75170;SHT31;63749;49.186;9.222;2023-04-29T14:56:46;16.24;62.99
75170;SHT31;63749;49.186;9.222;2023-04-29T14:59:11;16.18;64.14
75170;SHT31;63749;49.186;9.222;2023-04-29T15:01:37;16.14;63.92
75170;SHT31;63749;49.186;9.222;2023-04-29T15:04:04;16.11;64.22
75170;SHT31;63749;49.186;9.222;2023-04-29T15:06:30;16.10;64.84
75170;SHT31;63749;49.186;9.222;2023-04-29T15:08:56;16.07;64.45
75170;SHT31;63749;49.186;9.222;2023-04-29T15:11:21;16.04;64.32
75170;SHT31;63749;49.186;9.222;2023-04-29T15:13:48;15.96;64.96
75170;SHT31;63749;49.186;9.222;2023-04-29T15:16:13;16.00;64.84
75170;SHT31;63749;49.186;9.222;2023-04-29T15:18:39;15.93;64.94
75170;SHT31;63749;49.186;9.222;2023-04-29T15:21:05;15.94;64.90
75170;SHT31;63749;49.186;9.222;2023-04-29T15:23:30;15.98;65.01
75170;SHT31;63749;49.186;9.222;2023-04-29T15:25:56;15.93;64.96
75170;SHT31;63749;49.186;9.222;2023-04-29T15:28:21;15.84;65.41
75170;SHT31;63749;49.186;9.222;2023-04-29T15:30:48;15.79;65.55
75170;SHT31;63749;49.186;9.222;2023-04-29T15:33:14;15.71;65.64
75170;SHT31;63749;49.186;9.222;2023-04-29T15:35:39;15.67;65.17
75170;SHT31;63749;49.186;9.222;2023-04-29T15:38:05;15.62;65.10
75170;SHT31;63749;49.186;9.222;2023-04-29T15:40:31;15.56;65.35
75170;SHT31;63749;49.186;9.222;2023-04-29T15:42:56;15.53;66.00
75170;SHT31;63749;49.186;9.222;2023-04-29T15:45:22;15.52;64.99
75170;SHT31;63749;49.186;9.222;2023-04-29T15:47:48;15.43;65.38
75170;SHT31;63749;49.186;9.222;2023-04-29T15:50:13;15.42;65.71